createdAt,value
2022-08-05T00:00:46.658Z,101277.29
2022-08-05T00:03:15.635Z,101288.74
2022-08-05T00:06:04.885Z,101271.35
2022-08-05T00:08:32.996Z,101282.30
2022-08-05T00:10:43.359Z,101296.28
2022-08-05T00:13:18.528Z,101308.80
2022-08-05T00:15:55.200Z,101324.79
2022-08-05T00:18:21.849Z,101326.51
2022-08-05T00:20:44.630Z,101313.37
2022-08-05T00:23:15.071Z,101319.92
2022-08-05T00:25:45.720Z,101323.46
2022-08-05T00:28:15.511Z,101327.34
2022-08-05T00:30:45.904Z,101318.48
2022-08-05T00:34:56.659Z,101311.77
2022-08-05T00:35:48.018Z,101305.50
2022-08-05T00:38:16.760Z,101302.33
2022-08-05T00:40:51.984Z,101301.48
2022-08-05T00:43:17.369Z,101309.25
2022-08-05T00:45:47.704Z,101316.99
2022-08-05T00:48:17.994Z,101317.38
2022-08-05T00:50:48.311Z,101329.30
2022-08-05T00:53:44.930Z,101335.93
2022-08-05T00:55:48.971Z,101339.52
2022-08-05T00:58:19.383Z,101344.24
2022-08-05T01:00:50.345Z,101344.76
2022-08-05T01:03:22.395Z,101345.40
2022-08-05T01:05:50.160Z,101344.40
2022-08-05T01:08:40.333Z,101344.61
2022-08-05T01:10:52.185Z,101337.60
2022-08-05T01:13:22.402Z,101332.63
2022-08-05T01:15:51.438Z,101335.46
2022-08-05T01:18:21.738Z,101335.38
2022-08-05T01:20:52.090Z,101327.79
2022-08-05T01:23:22.799Z,101326.15
2022-08-05T01:25:53.831Z,101327.09
2022-08-05T01:28:23.076Z,101328.49
2022-08-05T01:30:55.153Z,101322.60
2022-08-05T01:33:25.353Z,101317.23
2022-08-05T01:35:54.152Z,101320.17
2022-08-05T01:38:26.939Z,101318.69
2022-08-05T01:40:54.921Z,101320.67
2022-08-05T01:43:25.156Z,101323.04
2022-08-05T01:45:56.550Z,101339.94
2022-08-05T01:48:26.003Z,101338.74
2022-08-05T01:50:56.277Z,101335.51
2022-08-05T01:53:54.940Z,101332.46
2022-08-05T01:55:56.658Z,101326.56
2022-08-05T01:58:40.547Z,101322.50
2022-08-05T02:00:57.222Z,101321.39
2022-08-05T02:03:31.318Z,101316.53
2022-08-05T02:06:00.882Z,101317.64
2022-08-05T02:08:30.765Z,101330.32
2022-08-05T02:10:58.632Z,101337.46
2022-08-05T02:13:28.820Z,101340.45
2022-08-05T02:15:59.158Z,101334.19
2022-08-05T02:18:34.255Z,101337.15
2022-08-05T02:20:59.776Z,101344.35
2022-08-05T02:23:30.154Z,101346.71
2022-08-05T02:26:00.401Z,101350.79
2022-08-05T02:28:33.068Z,101348.85
2022-08-05T02:31:01.065Z,101344.49
2022-08-05T02:33:38.149Z,101340.03
2022-08-05T02:36:01.627Z,101349.07
2022-08-05T02:38:35.116Z,101353.40
2022-08-05T02:41:06.304Z,101352.94
2022-08-05T02:43:33.075Z,101345.01
2022-08-05T02:46:03.405Z,101340.42
2022-08-05T02:48:33.812Z,101335.69
2022-08-05T02:51:04.053Z,101336.58
2022-08-05T02:53:38.927Z,101340.30
2022-08-05T02:56:04.671Z,101348.66
2022-08-05T02:58:34.944Z,101353.51
2022-08-05T03:01:05.338Z,101357.77
2022-08-05T03:04:02.836Z,101356.63
2022-08-05T03:06:55.961Z,101359.92
2022-08-05T03:08:36.216Z,101369.22
2022-08-05T03:11:54.795Z,101369.02
2022-08-05T03:13:52.222Z,101370.64
2022-08-05T03:16:07.050Z,101377.16
2022-08-05T03:18:37.384Z,101383.21
2022-08-05T03:21:08.207Z,101391.30
2022-08-05T03:23:38.499Z,101392.24
2022-08-05T03:26:30.823Z,101403.76
2022-08-05T03:28:39.038Z,101404.33
2022-08-05T03:31:09.342Z,101407.50
2022-08-05T03:33:51.134Z,101414.05
2022-08-05T03:36:11.871Z,101422.45
2022-08-05T03:38:53.203Z,101421.27
2022-08-05T03:41:10.987Z,101399.01
2022-08-05T03:44:08.433Z,101383.32
2022-08-05T03:46:11.161Z,101367.02
2022-08-05T03:48:41.446Z,101355.94
2022-08-05T03:52:50.493Z,101359.88
2022-08-05T03:55:53.094Z,101358.85
2022-08-05T03:56:27.772Z,101355.46
2022-08-05T03:58:42.732Z,101355.83
2022-08-05T04:01:13.369Z,101351.59
2022-08-05T04:04:10.407Z,101343.44
2022-08-05T04:06:13.749Z,101344.91
2022-08-05T04:08:44.065Z,101346.65
2022-08-05T04:11:14.427Z,101336.33
2022-08-05T04:13:51.123Z,101326.55
2022-08-05T04:16:15.061Z,101321.07
2022-08-05T04:18:45.362Z,101316.09
2022-08-05T04:22:05.026Z,101304.89
2022-08-05T04:24:05.906Z,101301.27
2022-08-05T04:26:17.360Z,101310.44
2022-08-05T04:28:51.861Z,101303.73
2022-08-05T04:31:16.890Z,101308.36
2022-08-05T04:34:18.940Z,101308.96
2022-08-05T04:36:49.837Z,101310.45
2022-08-05T04:38:51.055Z,101308.92
2022-08-05T04:41:18.174Z,101305.01
2022-08-05T04:43:52.050Z,101313.66
2022-08-05T04:46:27.966Z,101331.59
2022-08-05T04:48:51.684Z,101331.43
2022-08-05T04:51:19.983Z,101315.62
2022-08-05T04:53:50.295Z,101327.47
2022-08-05T04:56:35.162Z,101341.15
2022-08-05T04:58:50.979Z,101340.02
2022-08-05T05:02:07.852Z,101334.04
2022-08-05T05:03:51.553Z,101341.33
2022-08-05T05:06:39.034Z,101336.62
2022-08-05T05:08:52.146Z,101331.11
2022-08-05T05:11:22.509Z,101320.86
2022-08-05T05:13:52.771Z,101331.32
2022-08-05T05:16:23.078Z,101352.88
2022-08-05T05:19:17.777Z,101360.14
2022-08-05T05:21:23.721Z,101364.57
2022-08-05T05:24:03.862Z,101368.15
2022-08-05T05:26:28.727Z,101373.09
2022-08-05T05:28:54.369Z,101371.64
2022-08-05T05:31:24.573Z,101372.98
2022-08-05T05:33:59.214Z,101376.43
2022-08-05T05:36:25.179Z,101383.70
2022-08-05T05:38:55.584Z,101391.04
2022-08-05T05:41:25.817Z,101398.55
2022-08-05T05:44:00.278Z,101404.66
2022-08-05T05:46:26.951Z,101398.34
2022-08-05T05:48:57.275Z,101391.64
2022-08-05T05:51:28.293Z,101379.33
2022-08-05T05:53:59.623Z,101379.28
2022-08-05T05:56:33.279Z,101379.25
2022-08-05T05:59:03.634Z,101383.07
2022-08-05T06:01:37.599Z,101386.67
2022-08-05T06:04:03.703Z,101391.95
2022-08-05T06:06:34.705Z,101391.48
2022-08-05T06:09:01.280Z,101395.12
2022-08-05T06:11:31.582Z,101402.88
2022-08-05T06:14:01.545Z,101402.37
2022-08-05T06:16:32.790Z,101395.02
2022-08-05T06:19:05.416Z,101396.64
2022-08-05T06:21:37.268Z,101392.80
2022-08-05T06:24:03.354Z,101389.50
2022-08-05T06:26:35.014Z,101389.98
2022-08-05T06:29:06.481Z,101389.10
2022-08-05T06:31:34.425Z,101387.14
2022-08-05T06:34:07.839Z,101396.41
2022-08-05T06:36:37.423Z,101404.24
2022-08-05T06:39:05.727Z,101414.42
2022-08-05T06:41:36.297Z,101414.62
2022-08-05T06:44:06.685Z,101409.75
2022-08-05T06:46:36.911Z,101415.05
2022-08-05T06:49:07.666Z,101430.70
2022-08-05T06:51:40.711Z,101430.57
2022-08-05T06:54:08.041Z,101428.86
2022-08-05T06:56:38.321Z,101430.35
2022-08-05T06:59:09.838Z,101433.13
2022-08-05T07:01:40.878Z,101432.02
2022-08-05T07:04:09.708Z,101426.75
2022-08-05T07:06:40.048Z,101422.63
2022-08-05T07:09:10.341Z,101433.44
2022-08-05T07:11:40.690Z,101431.52
2022-08-05T07:14:20.735Z,101431.31
2022-08-05T07:18:08.486Z,101428.90
2022-08-05T07:19:16.097Z,101426.99
2022-08-05T07:22:00.242Z,101426.64
2022-08-05T07:24:13.287Z,101429.41
2022-08-05T07:26:43.660Z,101436.17
2022-08-05T07:29:13.646Z,101442.46
2022-08-05T07:31:54.613Z,101440.45
2022-08-05T07:34:14.821Z,101424.90
2022-08-05T07:36:45.150Z,101419.17
2022-08-05T07:39:24.718Z,101426.88
2022-08-05T07:42:13.898Z,101429.50
2022-08-05T07:44:18.945Z,101436.09
2022-08-05T07:46:48.495Z,101437.92
2022-08-05T07:49:18.145Z,101440.89
2022-08-05T07:51:53.841Z,101436.67
2022-08-05T07:54:18.577Z,101432.71
2022-08-05T07:57:01.627Z,101437.05
2022-08-05T07:59:23.279Z,101443.03
2022-08-05T08:01:52.285Z,101453.65
2022-08-05T08:04:34.290Z,101464.55
2022-08-05T08:06:49.902Z,101464.97
2022-08-05T08:09:20.543Z,101457.74
2022-08-05T08:11:58.966Z,101456.40
2022-08-05T08:14:21.913Z,101461.71
2022-08-05T08:16:53.425Z,101460.05
2022-08-05T08:20:10.866Z,101457.20
2022-08-05T08:21:53.238Z,101458.09
2022-08-05T08:24:23.157Z,101460.16
2022-08-05T08:26:53.626Z,101466.61
2022-08-05T08:30:04.279Z,101466.17
2022-08-05T08:31:54.221Z,101464.06
2022-08-05T08:34:30.462Z,101463.07
2022-08-05T08:37:00.273Z,101469.03
2022-08-05T08:39:25.660Z,101475.32
2022-08-05T08:42:00.010Z,101471.31
2022-08-05T08:45:22.867Z,101468.56
2022-08-05T08:46:56.777Z,101478.36
2022-08-05T08:50:22.509Z,101480.15
2022-08-05T08:52:03.854Z,101475.29
2022-08-05T08:54:27.656Z,101478.15
2022-08-05T08:56:57.521Z,101487.90
2022-08-05T08:59:33.786Z,101490.47
2022-08-05T09:02:01.264Z,101480.61
2022-08-05T09:04:30.623Z,101470.76
2022-08-05T09:06:58.849Z,101470.84
2022-08-05T09:09:32.484Z,101472.70
2022-08-05T09:12:04.645Z,101479.61
2022-08-05T09:14:58.881Z,101488.55
2022-08-05T09:17:00.511Z,101487.85
2022-08-05T09:19:36.671Z,101491.39
2022-08-05T09:22:23.072Z,101491.13
2022-08-05T09:24:31.748Z,101493.05
2022-08-05T09:27:01.696Z,101495.53
2022-08-05T09:29:31.909Z,101495.95
2022-08-05T09:32:40.771Z,101497.01
2022-08-05T09:34:32.584Z,101496.17
2022-08-05T09:37:02.898Z,101503.38
2022-08-05T09:39:44.985Z,101505.38
2022-08-05T09:42:03.517Z,101511.55
2022-08-05T09:44:33.509Z,101513.91
2022-08-05T09:47:03.965Z,101513.65
2022-08-05T09:50:01.728Z,101517.54
2022-08-05T09:52:04.458Z,101520.58
2022-08-05T09:54:34.829Z,101518.39
2022-08-05T09:57:05.660Z,101514.69
2022-08-05T09:59:37.272Z,101519.10
2022-08-05T10:02:06.301Z,101527.04
2022-08-05T10:04:38.526Z,101527.58
2022-08-05T10:07:20.450Z,101523.64
2022-08-05T10:09:45.165Z,101524.36
2022-08-05T10:12:18.742Z,101525.10
2022-08-05T10:14:37.632Z,101527.76
2022-08-05T10:17:08.512Z,101525.10
2022-08-05T10:20:03.052Z,101527.07
2022-08-05T10:22:15.729Z,101529.64
2022-08-05T10:24:39.972Z,101525.30
2022-08-05T10:27:10.264Z,101527.06
2022-08-05T10:30:06.854Z,101532.27
2022-08-05T10:32:54.812Z,101529.46
2022-08-05T10:34:41.180Z,101534.59
2022-08-05T10:37:11.919Z,101532.55
2022-08-05T10:40:03.063Z,101529.35
2022-08-05T10:42:12.459Z,101534.83
2022-08-05T10:44:42.748Z,101537.02
2022-08-05T10:47:26.708Z,101540.13
2022-08-05T10:49:48.759Z,101542.83
2022-08-05T10:52:14.139Z,101544.34
2022-08-05T10:54:47.173Z,101550.94
2022-08-05T10:57:14.635Z,101544.68
2022-08-05T11:00:04.211Z,101549.40
2022-08-05T11:02:34.805Z,101551.34
2022-08-05T11:04:45.245Z,101554.73
2022-08-05T11:07:16.320Z,101550.85
2022-08-05T11:09:46.465Z,101550.62
2022-08-05T11:12:16.035Z,101553.47
2022-08-05T11:15:11.642Z,101557.67
2022-08-05T11:18:07.686Z,101562.08
2022-08-05T11:20:10.937Z,101566.38
2022-08-05T11:22:16.879Z,101567.82
2022-08-05T11:24:50.782Z,101569.75
2022-08-05T11:27:17.327Z,101567.71
2022-08-05T11:29:47.499Z,101567.04
2022-08-05T11:32:17.727Z,101573.30
2022-08-05T11:34:53.967Z,101573.78
2022-08-05T11:38:28.524Z,101566.79
2022-08-05T11:39:48.504Z,101567.77
2022-08-05T11:42:18.763Z,101571.49
2022-08-05T11:44:53.649Z,101578.10
2022-08-05T11:47:22.003Z,101579.37
2022-08-05T11:49:50.919Z,101578.43
2022-08-05T11:52:19.593Z,101577.96
2022-08-05T11:54:55.014Z,101578.43
2022-08-05T11:57:25.613Z,101585.31
2022-08-05T11:59:50.806Z,101590.47
2022-08-05T12:02:29.905Z,101589.14
2022-08-05T12:04:59.011Z,101591.59
2022-08-05T12:08:07.258Z,101595.38
2022-08-05T12:09:53.325Z,101596.37
2022-08-05T12:12:21.377Z,101605.67
2022-08-05T12:14:51.555Z,101604.05
2022-08-05T12:18:00.573Z,101602.22
2022-08-05T12:20:26.216Z,101606.45
2022-08-05T12:22:22.329Z,101608.36
2022-08-05T12:24:52.553Z,101608.71
2022-08-05T12:27:25.324Z,101605.14
2022-08-05T12:29:53.922Z,101609.24
2022-08-05T12:32:23.684Z,101613.25
2022-08-05T12:34:54.017Z,101613.49
2022-08-05T12:37:23.934Z,101613.61
2022-08-05T12:39:54.421Z,101621.10
2022-08-05T12:42:25.367Z,101628.21
2022-08-05T12:44:54.547Z,101624.18
2022-08-05T12:47:24.956Z,101638.24
2022-08-05T12:50:03.564Z,101638.17
2022-08-05T12:52:29.585Z,101644.12
2022-08-05T12:54:55.637Z,101644.44
2022-08-05T12:57:26.035Z,101650.99
2022-08-05T13:02:04.376Z,101647.49
2022-08-05T13:02:27.228Z,101654.88
2022-08-05T13:04:56.737Z,101657.97
2022-08-05T13:07:55.986Z,101668.65
2022-08-05T13:09:57.139Z,101667.57
2022-08-05T13:12:28.600Z,101667.89
2022-08-05T13:15:05.150Z,101665.61
2022-08-05T13:17:31.917Z,101682.04
2022-08-05T13:19:58.361Z,101684.57
2022-08-05T13:22:30.021Z,101689.72
2022-08-05T13:25:00.440Z,101689.79
2022-08-05T13:27:37.297Z,101691.43
2022-08-05T13:30:32.420Z,101696.62
2022-08-05T13:32:35.143Z,101706.45
2022-08-05T13:34:59.655Z,101705.11
2022-08-05T13:37:34.977Z,101711.08
2022-08-05T13:40:15.093Z,101705.83
2022-08-05T13:42:30.441Z,101710.73
2022-08-05T13:45:00.556Z,101715.46
2022-08-05T13:47:36.078Z,101708.93
2022-08-05T13:50:00.954Z,101715.46
2022-08-05T13:52:31.768Z,101716.22
2022-08-05T13:55:02.055Z,101724.26
2022-08-05T13:57:50.966Z,101725.30
2022-08-05T14:00:02.481Z,101728.95
2022-08-05T14:02:32.803Z,101721.96
2022-08-05T14:05:02.876Z,101740.31
2022-08-05T14:07:59.945Z,101732.56
2022-08-05T14:10:03.326Z,101736.04
2022-08-05T14:12:33.634Z,101748.99
2022-08-05T14:16:03.821Z,101743.66
2022-08-05T14:17:34.094Z,101743.09
2022-08-05T14:20:04.596Z,101753.94
2022-08-05T14:22:34.694Z,101760.77
2022-08-05T14:25:06.162Z,101772.57
2022-08-05T14:27:34.907Z,101777.79
2022-08-05T14:30:05.052Z,101784.02
2022-08-05T14:32:35.503Z,101782.69
2022-08-05T14:35:05.502Z,101782.93
2022-08-05T14:37:44.715Z,101783.65
2022-08-05T14:40:06.066Z,101786.98
2022-08-05T14:42:36.603Z,101788.20
2022-08-05T14:45:06.456Z,101791.30
2022-08-05T14:48:05.027Z,101793.00
2022-08-05T14:50:17.524Z,101792.04
2022-08-05T14:52:52.641Z,101799.87
2022-08-05T14:55:07.447Z,101804.70
2022-08-05T14:57:54.663Z,101803.62
2022-08-05T15:00:07.968Z,101802.18
2022-08-05T15:02:38.301Z,101802.24
2022-08-05T15:05:13.567Z,101807.50
2022-08-05T15:08:04.556Z,101805.96
2022-08-05T15:10:09.877Z,101812.66
2022-08-05T15:12:59.784Z,101811.52
2022-08-05T15:15:10.789Z,101813.60
2022-08-05T15:17:45.602Z,101814.76
2022-08-05T15:20:18.815Z,101815.97
2022-08-05T15:22:40.277Z,101819.78
2022-08-05T15:25:11.854Z,101826.13
2022-08-05T15:27:42.900Z,101824.72
2022-08-05T15:30:11.064Z,101828.19
2022-08-05T15:32:41.319Z,101827.46
2022-08-05T15:35:12.562Z,101825.15
2022-08-05T15:38:33.086Z,101822.66
2022-08-05T15:40:59.594Z,101830.47
2022-08-05T15:42:55.250Z,101829.39
2022-08-05T15:45:12.600Z,101830.91
2022-08-05T15:47:42.954Z,101830.83
2022-08-05T15:50:15.096Z,101833.68
2022-08-05T15:52:52.962Z,101834.30
2022-08-05T15:55:16.315Z,101832.12
2022-08-05T15:57:45.092Z,101832.16
2022-08-05T16:00:16.759Z,101837.02
2022-08-05T16:02:44.830Z,101831.93
2022-08-05T16:05:14.987Z,101836.56
2022-08-05T16:07:46.683Z,101837.85
2022-08-05T16:10:15.452Z,101833.68
2022-08-05T16:12:45.763Z,101837.70
2022-08-05T16:15:18.391Z,101838.77
2022-08-05T16:17:57.404Z,101841.17
2022-08-05T16:20:16.378Z,101843.27
2022-08-05T16:22:46.641Z,101842.99
2022-08-05T16:25:16.867Z,101841.47
2022-08-05T16:28:05.608Z,101844.97
2022-08-05T16:30:25.667Z,101849.09
2022-08-05T16:32:47.613Z,101846.57
2022-08-05T16:35:17.955Z,101855.30
2022-08-05T16:38:03.553Z,101857.52
2022-08-05T16:40:28.727Z,101859.49
2022-08-05T16:42:50.045Z,101855.27
2022-08-05T16:46:05.422Z,101853.73
2022-08-05T16:47:54.135Z,101856.87
2022-08-05T16:50:19.329Z,101858.90
2022-08-05T16:52:49.744Z,101867.35
2022-08-05T16:55:20.389Z,101868.30
2022-08-05T16:58:00.530Z,101866.44
2022-08-05T17:00:25.920Z,101870.77
2022-08-05T17:02:50.589Z,101868.15
2022-08-05T17:05:20.679Z,101864.84
2022-08-05T17:07:54.621Z,101873.33
2022-08-05T17:10:21.360Z,101875.15
2022-08-05T17:12:52.435Z,101872.05
2022-08-05T17:15:21.559Z,101873.66
2022-08-05T17:17:54.832Z,101882.40
2022-08-05T17:20:22.172Z,101886.23
2022-08-05T17:22:55.691Z,101888.01
2022-08-05T17:25:33.760Z,101887.62
2022-08-05T17:27:52.982Z,101891.19
2022-08-05T17:30:28.791Z,101891.04
2022-08-05T17:32:53.332Z,101890.80
2022-08-05T17:35:23.610Z,101898.39
2022-08-05T17:37:53.989Z,101900.12
2022-08-05T17:40:24.346Z,101900.38
2022-08-05T17:42:54.864Z,101902.48
2022-08-05T17:45:38.268Z,101915.79
2022-08-05T17:47:56.334Z,101920.32
2022-08-05T17:50:28.375Z,101919.95
2022-08-05T17:52:56.630Z,101928.63
2022-08-05T17:55:27.382Z,101931.36
2022-08-05T17:57:57.297Z,101939.13
2022-08-05T18:00:28.603Z,101935.64
2022-08-05T18:02:57.807Z,101936.70
2022-08-05T18:05:28.366Z,101939.29
2022-08-05T18:07:58.461Z,101944.74
2022-08-05T18:10:28.625Z,101948.20
2022-08-05T18:12:58.964Z,101951.76
2022-08-05T18:15:34.069Z,101955.18
2022-08-05T18:18:04.512Z,101957.16
2022-08-05T18:20:31.870Z,101962.66
2022-08-05T18:23:08.870Z,101966.31
2022-08-05T18:25:32.747Z,101968.70
2022-08-05T18:28:01.625Z,101972.47
2022-08-05T18:30:31.051Z,101978.85
2022-08-05T18:33:01.432Z,101976.30
2022-08-05T18:35:59.710Z,101982.34
2022-08-05T18:38:01.853Z,101985.36
2022-08-05T18:41:52.842Z,101986.88
2022-08-05T18:43:02.410Z,101989.89
2022-08-05T18:45:40.978Z,101990.80
2022-08-05T18:48:03.029Z,101989.75
2022-08-05T18:50:45.429Z,101995.05
2022-08-05T18:53:03.523Z,101996.80
2022-08-05T18:55:33.783Z,101995.43
2022-08-05T18:58:04.130Z,101997.88
2022-08-05T19:00:34.860Z,102000.00
2022-08-05T19:03:04.894Z,102006.63
2022-08-05T19:06:13.575Z,102009.78
2022-08-05T19:08:05.269Z,102012.31
2022-08-05T19:10:35.537Z,102014.49
2022-08-05T19:13:05.871Z,102021.39
2022-08-05T19:16:00.033Z,102024.85
2022-08-05T19:18:09.715Z,102026.81
2022-08-05T19:20:36.761Z,102030.59
2022-08-05T19:23:07.696Z,102036.85
2022-08-05T19:25:41.956Z,102034.05
2022-08-05T19:28:07.677Z,102042.91
2022-08-05T19:30:38.304Z,102045.60
2022-08-05T19:33:12.863Z,102051.33
2022-08-05T19:35:56.451Z,102051.10
2022-08-05T19:38:09.518Z,102055.36
2022-08-05T19:40:39.150Z,102056.83
2022-08-05T19:43:09.620Z,102060.21
2022-08-05T19:45:39.788Z,102069.35
2022-08-05T19:48:14.592Z,102073.28
2022-08-05T19:50:40.418Z,102075.75
2022-08-05T19:53:10.961Z,102079.43
2022-08-05T19:56:14.087Z,102084.93
2022-08-05T19:58:29.433Z,102087.63
2022-08-05T20:00:41.737Z,102086.11
2022-08-05T20:03:11.965Z,102089.83
2022-08-05T20:05:50.207Z,102096.06
2022-08-05T20:08:12.630Z,102103.28
2022-08-05T20:10:43.272Z,102106.46
2022-08-05T20:13:13.221Z,102110.44
2022-08-05T20:15:52.277Z,102112.59
2022-08-05T20:18:33.227Z,102114.96
2022-08-05T20:20:44.274Z,102118.55
2022-08-05T20:23:14.481Z,102123.09
2022-08-05T20:25:44.823Z,102128.78
2022-08-05T20:28:15.299Z,102132.99
2022-08-05T20:30:45.557Z,102133.74
2022-08-05T20:33:15.794Z,102135.22
2022-08-05T20:35:46.202Z,102142.71
2022-08-05T20:38:27.125Z,102143.46
2022-08-05T20:40:46.812Z,102146.42
2022-08-05T20:43:17.155Z,102148.80
2022-08-05T20:45:56.043Z,102152.15
2022-08-05T20:48:17.808Z,102154.32
2022-08-05T20:50:48.146Z,102157.22
2022-08-05T20:53:36.553Z,102157.36
2022-08-05T20:55:56.514Z,102159.82
2022-08-05T20:58:19.156Z,102160.35
2022-08-05T21:00:52.162Z,102162.13
2022-08-05T21:03:20.577Z,102161.83
2022-08-05T21:05:55.516Z,102159.87
2022-08-05T21:08:20.621Z,102160.48
2022-08-05T21:10:50.868Z,102160.14
2022-08-05T21:13:37.817Z,102165.32
2022-08-05T21:15:51.559Z,102169.23
2022-08-05T21:18:23.295Z,102175.67
2022-08-05T21:20:52.605Z,102176.93
2022-08-05T21:23:22.679Z,102180.31
2022-08-05T21:25:55.286Z,102183.86
2022-08-05T21:28:23.946Z,102188.47
2022-08-05T21:30:53.656Z,102186.45
2022-08-05T21:33:23.980Z,102189.20
2022-08-05T21:35:58.251Z,102189.19
2022-08-05T21:38:24.652Z,102193.42
2022-08-05T21:40:55.018Z,102197.20
2022-08-05T21:43:25.376Z,102201.89
2022-08-05T21:45:57.428Z,102204.08
2022-08-05T21:48:26.050Z,102204.91
2022-08-05T21:50:57.373Z,102212.82
2022-08-05T21:53:27.251Z,102215.45
2022-08-05T21:56:06.069Z,102216.78
2022-08-05T21:58:30.895Z,102214.28
2022-08-05T22:00:57.957Z,102217.25
2022-08-05T22:03:52.229Z,102213.23
2022-08-05T22:05:58.584Z,102210.89
2022-08-05T22:08:28.937Z,102210.20
2022-08-05T22:10:59.329Z,102212.66
2022-08-05T22:14:32.285Z,102212.22
2022-08-05T22:16:07.713Z,102210.83
2022-08-05T22:18:30.427Z,102214.68
2022-08-05T22:21:00.862Z,102214.82
2022-08-05T22:24:01.168Z,102216.92
2022-08-05T22:26:09.663Z,102217.61
2022-08-05T22:28:31.928Z,102220.38
2022-08-05T22:31:05.241Z,102224.08
2022-08-05T22:33:56.824Z,102223.37
2022-08-05T22:36:03.112Z,102221.29
2022-08-05T22:38:33.409Z,102224.01
2022-08-05T22:41:09.916Z,102226.36
2022-08-05T22:43:37.483Z,102225.04
2022-08-05T22:46:12.284Z,102231.94
2022-08-05T22:48:35.273Z,102233.49
2022-08-05T22:51:06.911Z,102235.96
2022-08-05T22:53:36.535Z,102234.04
2022-08-05T22:56:06.118Z,102236.06
2022-08-05T22:58:36.583Z,102237.42
2022-08-05T23:01:06.976Z,102238.93
2022-08-05T23:03:59.039Z,102242.57
2022-08-05T23:06:07.661Z,102244.38
2022-08-05T23:08:38.153Z,102250.57
2022-08-05T23:11:08.729Z,102251.23
2022-08-05T23:13:38.832Z,102253.73
2022-08-05T23:16:09.332Z,102252.32
2022-08-05T23:18:39.589Z,102252.97
2022-08-05T23:21:10.177Z,102258.38
2022-08-05T23:23:40.394Z,102262.25
2022-08-05T23:26:10.758Z,102263.50
2022-08-05T23:28:43.040Z,102261.61
2022-08-05T23:31:16.706Z,102262.74
2022-08-05T23:34:05.044Z,102266.11
2022-08-05T23:36:13.495Z,102264.38
2022-08-05T23:38:43.033Z,102266.40
2022-08-05T23:41:13.249Z,102267.14
2022-08-05T23:44:06.124Z,102265.75
2022-08-05T23:46:19.900Z,102265.54
2022-08-05T23:48:44.495Z,102269.14
2022-08-05T23:51:15.291Z,102270.48
2022-08-05T23:53:46.741Z,102269.43
2022-08-05T23:56:19.970Z,102268.66
2022-08-05T23:58:46.225Z,102273.49
